createdAt,value
2019-05-26T00:01:45.880Z,13.15
2019-05-26T00:04:11.624Z,14.78
2019-05-26T00:06:37.075Z,10.70
2019-05-26T00:09:02.617Z,9.75
2019-05-26T00:11:28.022Z,11.50
2019-05-26T00:13:53.745Z,9.75
2019-05-26T00:16:19.194Z,10.25
2019-05-26T00:18:44.668Z,9.95
2019-05-26T00:21:10.119Z,11.65
2019-05-26T00:23:35.610Z,10.88
2019-05-26T00:26:01.075Z,12.37
2019-05-26T00:28:26.551Z,11.68
2019-05-26T00:30:53.231Z,11.88
2019-05-26T00:33:18.886Z,11.40
2019-05-26T00:35:45.015Z,11.73
2019-05-26T00:38:10.646Z,9.75
2019-05-26T00:40:36.665Z,10.70
2019-05-26T00:43:02.343Z,11.57
2019-05-26T00:45:29.179Z,10.60
2019-05-26T00:47:55.037Z,10.98
2019-05-26T00:50:20.889Z,11.90
2019-05-26T00:52:47.215Z,10.15
2019-05-26T00:55:13.369Z,12.98
2019-05-26T00:57:39.526Z,10.68
2019-05-26T01:00:05.474Z,10.68
2019-05-26T01:02:31.100Z,12.28
2019-05-26T01:04:56.673Z,11.90
2019-05-26T01:07:22.556Z,13.70
2019-05-26T01:09:49.111Z,14.07
2019-05-26T01:12:14.844Z,12.80
2019-05-26T01:14:40.239Z,14.55
2019-05-26T01:17:05.975Z,16.42
2019-05-26T01:19:31.724Z,13.58
2019-05-26T01:21:57.157Z,13.55
2019-05-26T01:24:22.629Z,14.70
2019-05-26T01:26:48.094Z,15.85
2019-05-26T01:29:13.560Z,16.00
2019-05-26T01:31:39.271Z,16.05
2019-05-26T01:34:04.744Z,15.83
2019-05-26T01:36:30.680Z,18.23
2019-05-26T01:38:56.955Z,16.80
2019-05-26T01:41:22.427Z,16.93
2019-05-26T01:43:47.903Z,16.75
2019-05-26T01:46:13.400Z,19.27
2019-05-26T01:48:38.886Z,17.45
2019-05-26T01:51:04.366Z,18.57
2019-05-26T01:53:29.788Z,18.32
2019-05-26T01:55:55.521Z,23.67
2019-05-26T01:58:21.062Z,18.57
2019-05-26T02:00:46.944Z,18.60
2019-05-26T02:03:12.688Z,17.67
2019-05-26T02:05:38.150Z,20.88
2019-05-26T02:08:03.606Z,21.93
2019-05-26T02:10:29.085Z,18.98
2019-05-26T02:12:54.446Z,18.50
2019-05-26T02:15:20.980Z,21.70
2019-05-26T02:17:46.445Z,23.47
2019-05-26T02:20:12.547Z,23.80
2019-05-26T02:22:38.593Z,26.45
2019-05-26T02:25:04.189Z,24.02
2019-05-26T02:27:29.772Z,25.32
2019-05-26T02:29:55.279Z,26.62
2019-05-26T02:32:20.740Z,27.90
2019-05-26T02:34:46.217Z,31.62
2019-05-26T02:37:11.651Z,26.37
2019-05-26T02:39:37.386Z,27.20
2019-05-26T02:42:02.868Z,29.37
2019-05-26T02:44:28.244Z,27.05
2019-05-26T02:46:53.734Z,30.70
2019-05-26T02:49:19.187Z,29.15
2019-05-26T02:51:44.916Z,29.55
2019-05-26T02:54:10.640Z,28.55
2019-05-26T02:56:36.104Z,30.43
2019-05-26T02:59:01.465Z,35.68
2019-05-26T03:01:28.046Z,30.80
2019-05-26T03:03:54.100Z,32.35
2019-05-26T03:06:20.781Z,31.17
2019-05-26T03:08:48.399Z,34.43
2019-05-26T03:11:14.738Z,33.45
2019-05-26T03:13:42.498Z,33.30
2019-05-26T03:16:14.064Z,32.45
2019-05-26T03:18:43.105Z,34.58
2019-05-26T03:21:08.565Z,34.90
2019-05-26T03:23:34.039Z,32.15
2019-05-26T03:26:01.485Z,32.30
2019-05-26T03:28:26.881Z,31.82
2019-05-26T03:30:52.686Z,31.80
2019-05-26T03:33:18.156Z,31.45
2019-05-26T03:35:43.619Z,30.10
2019-05-26T03:38:09.392Z,36.28
2019-05-26T03:40:34.864Z,34.70
2019-05-26T03:43:00.340Z,33.83
2019-05-26T03:45:31.310Z,34.13
2019-05-26T03:47:57.323Z,32.35
2019-05-26T03:50:22.801Z,37.17
2019-05-26T03:52:48.290Z,35.48
2019-05-26T03:55:13.852Z,34.30
2019-05-26T03:57:39.554Z,38.15
2019-05-26T04:00:06.051Z,38.45
2019-05-26T04:02:32.039Z,36.60
2019-05-26T04:04:57.819Z,33.02
2019-05-26T04:07:23.347Z,35.98
2019-05-26T04:10:03.907Z,39.00
2019-05-26T04:12:15.948Z,38.63
2019-05-26T04:14:41.346Z,37.55
2019-05-26T04:17:06.797Z,39.92
2019-05-26T04:19:32.639Z,39.45
2019-05-26T04:21:58.107Z,34.83
2019-05-26T04:24:23.828Z,34.60
2019-05-26T04:26:49.221Z,37.78
2019-05-26T04:29:14.709Z,37.67
2019-05-26T04:31:40.185Z,35.90
2019-05-26T04:34:05.648Z,36.30
2019-05-26T04:36:31.109Z,40.63
2019-05-26T04:38:59.003Z,37.58
2019-05-26T04:41:24.464Z,36.75
2019-05-26T04:43:49.956Z,41.18
2019-05-26T04:46:15.413Z,40.38
2019-05-26T04:48:40.855Z,41.33
2019-05-26T04:51:07.247Z,39.23
2019-05-26T04:53:32.704Z,41.68
2019-05-26T04:55:58.198Z,45.40
2019-05-26T04:58:23.666Z,47.27
2019-05-26T05:00:49.689Z,42.27
2019-05-26T05:03:15.118Z,46.15
2019-05-26T05:05:44.228Z,47.20
2019-05-26T05:08:09.947Z,45.70
2019-05-26T05:10:42.249Z,42.73
2019-05-26T05:13:03.919Z,49.25
2019-05-26T05:15:29.755Z,48.60
2019-05-26T05:17:55.359Z,50.48
2019-05-26T05:20:21.728Z,49.40
2019-05-26T05:22:47.307Z,51.33
2019-05-26T05:25:14.980Z,51.42
2019-05-26T05:27:57.606Z,46.18
2019-05-26T05:30:26.333Z,45.12
2019-05-26T05:32:53.303Z,55.10
2019-05-26T05:35:20.101Z,47.10
2019-05-26T05:37:46.311Z,49.35
2019-05-26T05:40:18.139Z,44.25
2019-05-26T05:42:47.976Z,49.23
2019-05-26T05:45:13.570Z,45.90
2019-05-26T05:47:39.088Z,47.62
2019-05-26T05:50:05.103Z,49.30
2019-05-26T05:52:30.843Z,47.73
2019-05-26T05:54:56.514Z,48.65
2019-05-26T05:57:22.063Z,50.05
2019-05-26T05:59:47.519Z,48.35
2019-05-26T06:02:13.222Z,45.88
2019-05-26T06:04:38.730Z,46.23
2019-05-26T06:07:04.190Z,49.18
2019-05-26T06:09:29.683Z,48.13
2019-05-26T06:11:56.988Z,46.18
2019-05-26T06:14:22.472Z,47.35
2019-05-26T06:16:49.511Z,46.37
2019-05-26T06:19:15.043Z,42.38
2019-05-26T06:21:40.823Z,44.50
2019-05-26T06:24:06.446Z,42.43
2019-05-26T06:26:32.027Z,41.37
2019-05-26T06:28:57.781Z,39.08
2019-05-26T06:31:23.629Z,40.58
2019-05-26T06:33:51.861Z,39.42
2019-05-26T06:36:19.929Z,40.08
2019-05-26T06:38:45.450Z,42.03
2019-05-26T06:41:11.223Z,33.23
2019-05-26T06:43:39.526Z,39.00
2019-05-26T06:46:04.990Z,38.60
2019-05-26T06:48:31.025Z,32.40
2019-05-26T06:50:57.199Z,36.30
2019-05-26T06:53:28.260Z,33.92
2019-05-26T06:55:54.420Z,32.85
2019-05-26T06:58:20.275Z,31.68
2019-05-26T07:01:09.897Z,32.35
2019-05-26T07:03:35.689Z,29.27
2019-05-26T07:06:01.233Z,31.95
2019-05-26T07:08:27.444Z,27.25
2019-05-26T07:10:54.733Z,28.10
2019-05-26T07:13:20.921Z,25.85
2019-05-26T07:15:46.981Z,29.15
2019-05-26T07:18:12.596Z,25.40
2019-05-26T07:20:38.357Z,22.75
2019-05-26T07:23:08.346Z,24.05
2019-05-26T07:25:34.606Z,23.07
2019-05-26T07:28:00.611Z,25.15
2019-05-26T07:30:26.572Z,23.55
2019-05-26T07:32:52.078Z,21.90
2019-05-26T07:35:17.767Z,20.82
2019-05-26T07:37:43.233Z,24.02
2019-05-26T07:40:09.485Z,19.75
2019-05-26T07:42:34.987Z,18.27
2019-05-26T07:45:00.668Z,17.87
2019-05-26T07:47:26.233Z,17.67
2019-05-26T07:49:51.748Z,16.82
2019-05-26T07:52:17.368Z,15.32
2019-05-26T07:54:43.054Z,16.23
2019-05-26T07:57:08.490Z,16.37
2019-05-26T07:59:34.175Z,15.25
2019-05-26T08:01:59.742Z,15.48
2019-05-26T08:04:25.651Z,14.20
2019-05-26T08:06:51.466Z,15.83
2019-05-26T08:09:17.729Z,14.25
2019-05-26T08:11:43.685Z,13.88
2019-05-26T08:14:09.192Z,15.30
2019-05-26T08:16:36.252Z,13.95
2019-05-26T08:19:01.751Z,14.05
2019-05-26T08:21:27.458Z,14.03
2019-05-26T08:23:53.541Z,14.65
2019-05-26T08:26:19.126Z,13.38
2019-05-26T08:28:44.930Z,13.00
2019-05-26T08:31:13.353Z,11.38
2019-05-26T08:33:40.609Z,14.30
2019-05-26T08:36:06.241Z,10.23
2019-05-26T08:38:32.236Z,12.05
2019-05-26T08:40:58.170Z,12.40
2019-05-26T08:43:24.217Z,12.10
2019-05-26T08:45:49.762Z,10.75
2019-05-26T08:48:15.693Z,12.55
2019-05-26T08:50:42.294Z,10.25
2019-05-26T08:53:08.191Z,10.23
2019-05-26T08:55:33.682Z,14.78
2019-05-26T08:57:59.391Z,10.18
2019-05-26T09:00:25.676Z,7.92
2019-05-26T09:02:51.225Z,9.60
2019-05-26T09:05:22.069Z,8.78
2019-05-26T09:07:48.381Z,7.53
2019-05-26T09:10:15.084Z,8.78
2019-05-26T09:12:40.954Z,7.95
2019-05-26T09:15:07.111Z,7.72
2019-05-26T09:17:38.746Z,6.58
2019-05-26T09:20:10.965Z,8.95
2019-05-26T09:22:34.820Z,8.18
2019-05-26T09:25:00.267Z,7.10
2019-05-26T09:27:25.915Z,7.37
2019-05-26T09:29:51.663Z,8.25
2019-05-26T09:32:17.112Z,8.65
2019-05-26T09:34:42.951Z,7.65
2019-05-26T09:37:08.596Z,6.83
2019-05-26T09:39:35.172Z,6.62
2019-05-26T09:42:00.681Z,13.10
2019-05-26T09:44:26.325Z,9.55
2019-05-26T09:46:52.150Z,10.00
2019-05-26T09:49:17.811Z,8.63
2019-05-26T09:51:52.648Z,8.40
2019-05-26T09:54:18.354Z,6.65
2019-05-26T09:56:44.027Z,9.05
2019-05-26T09:59:10.354Z,7.30
2019-05-26T10:01:35.994Z,6.75
2019-05-26T10:04:01.538Z,6.35
2019-05-26T10:06:27.009Z,7.70
2019-05-26T10:08:53.247Z,10.25
2019-05-26T10:11:18.743Z,8.93
2019-05-26T10:13:44.538Z,7.30
2019-05-26T10:16:10.093Z,10.35
2019-05-26T10:18:35.524Z,6.87
2019-05-26T10:21:00.991Z,7.25
2019-05-26T10:23:28.971Z,8.90
2019-05-26T10:25:54.682Z,7.45
2019-05-26T10:28:20.288Z,6.00
2019-05-26T10:30:46.081Z,6.22
2019-05-26T10:33:11.852Z,7.20
2019-05-26T10:35:37.361Z,8.20
2019-05-26T10:38:02.886Z,6.67
2019-05-26T10:40:28.460Z,8.33
2019-05-26T10:42:54.185Z,6.65
2019-05-26T10:45:19.784Z,5.15
2019-05-26T10:47:45.428Z,6.45
2019-05-26T10:50:13.462Z,6.25
2019-05-26T10:52:39.212Z,6.25
2019-05-26T10:55:04.907Z,6.80
2019-05-26T10:57:30.714Z,5.40
2019-05-26T10:59:56.271Z,5.40
2019-05-26T11:02:22.338Z,7.33
2019-05-26T11:04:47.927Z,6.97
2019-05-26T11:07:13.584Z,6.10
2019-05-26T11:09:39.224Z,4.80
2019-05-26T11:12:04.929Z,5.90
2019-05-26T11:14:30.653Z,7.72
2019-05-26T11:16:56.131Z,8.03
2019-05-26T11:19:21.849Z,6.70
2019-05-26T11:21:48.134Z,6.92
2019-05-26T11:24:13.987Z,5.33
2019-05-26T11:26:39.574Z,7.72
2019-05-26T11:29:05.255Z,7.97
2019-05-26T11:31:31.079Z,4.95
2019-05-26T11:33:56.751Z,5.70
2019-05-26T11:36:23.078Z,5.80
2019-05-26T11:38:48.569Z,5.97
2019-05-26T11:41:16.405Z,6.97
2019-05-26T11:43:41.875Z,6.03
2019-05-26T11:46:07.981Z,7.80
2019-05-26T11:48:33.406Z,6.03
2019-05-26T11:50:59.274Z,5.85
2019-05-26T11:53:24.692Z,5.58
2019-05-26T11:55:50.561Z,6.03
2019-05-26T11:58:16.058Z,7.22
2019-05-26T12:00:42.110Z,5.30
2019-05-26T12:03:07.815Z,4.80
2019-05-26T12:05:33.288Z,8.55
2019-05-26T12:07:58.962Z,7.33
2019-05-26T12:10:24.433Z,4.70
2019-05-26T12:12:50.591Z,7.22
2019-05-26T12:15:16.999Z,6.70
2019-05-26T12:17:42.842Z,6.55
2019-05-26T12:20:09.170Z,7.00
2019-05-26T12:22:34.943Z,8.18
2019-05-26T12:25:01.756Z,7.00
2019-05-26T12:27:27.822Z,5.90
2019-05-26T12:29:53.712Z,7.10
2019-05-26T12:32:25.432Z,6.83
2019-05-26T12:34:52.209Z,6.12
2019-05-26T12:37:17.871Z,6.30
2019-05-26T12:39:43.385Z,7.00
2019-05-26T12:42:09.368Z,7.05
2019-05-26T12:44:49.139Z,7.05
2019-05-26T12:47:05.274Z,6.42
2019-05-26T12:49:30.908Z,7.60
2019-05-26T12:51:56.360Z,7.05
2019-05-26T12:54:22.373Z,6.55
2019-05-26T12:56:47.889Z,6.92
2019-05-26T12:59:13.339Z,5.78
2019-05-26T13:01:39.356Z,5.80
2019-05-26T13:04:05.038Z,6.55
2019-05-26T13:06:30.770Z,5.37
2019-05-26T13:08:56.389Z,5.37
2019-05-26T13:11:22.889Z,6.55
2019-05-26T13:13:49.124Z,5.40
2019-05-26T13:16:14.715Z,4.35
2019-05-26T13:18:40.631Z,4.67
2019-05-26T13:21:06.143Z,3.90
2019-05-26T13:23:31.925Z,5.03
2019-05-26T13:25:57.359Z,3.92
2019-05-26T13:28:25.259Z,3.85
2019-05-26T13:30:50.792Z,5.20
2019-05-26T13:33:16.412Z,4.62
2019-05-26T13:35:42.026Z,4.10
2019-05-26T13:38:07.574Z,4.97
2019-05-26T13:40:33.613Z,5.00
2019-05-26T13:42:59.085Z,4.62
2019-05-26T13:45:24.801Z,7.28
2019-05-26T13:47:55.820Z,4.87
2019-05-26T13:50:33.143Z,5.70
2019-05-26T13:53:03.798Z,5.65
2019-05-26T13:55:29.470Z,5.22
2019-05-26T13:57:55.249Z,4.15
2019-05-26T14:00:23.755Z,5.92
2019-05-26T14:02:49.311Z,6.55
2019-05-26T14:05:24.921Z,4.08
2019-05-26T14:07:50.710Z,5.40
2019-05-26T14:10:38.492Z,4.30
2019-05-26T14:13:05.789Z,3.17
2019-05-26T14:15:38.689Z,2.90
2019-05-26T14:18:02.565Z,4.70
2019-05-26T14:20:59.543Z,4.17
2019-05-26T14:23:29.378Z,4.22
2019-05-26T14:26:07.275Z,4.28
2019-05-26T14:28:43.150Z,6.12
2019-05-26T14:31:08.945Z,4.60
2019-05-26T14:33:34.514Z,4.08
2019-05-26T14:35:59.995Z,4.50
2019-05-26T14:38:25.582Z,5.17
2019-05-26T14:40:51.068Z,4.80
2019-05-26T14:43:16.541Z,6.92
2019-05-26T14:45:53.017Z,4.05
2019-05-26T14:48:10.378Z,4.75
2019-05-26T14:50:35.872Z,5.83
2019-05-26T14:53:01.362Z,4.75
2019-05-26T14:55:26.882Z,7.20
2019-05-26T14:58:18.958Z,5.05
2019-05-26T15:00:44.843Z,4.40
2019-05-26T15:03:14.796Z,7.47
2019-05-26T15:05:46.318Z,4.72
2019-05-26T15:08:16.915Z,6.65
2019-05-26T15:10:44.765Z,4.72
2019-05-26T15:13:20.164Z,6.22
2019-05-26T15:15:47.793Z,5.92
2019-05-26T15:18:22.486Z,7.25
2019-05-26T15:20:48.081Z,5.47
2019-05-26T15:23:13.609Z,5.35
2019-05-26T15:25:39.392Z,5.40
2019-05-26T15:28:05.820Z,7.67
2019-05-26T15:30:31.322Z,5.60
2019-05-26T15:32:56.981Z,6.83
2019-05-26T15:35:22.619Z,7.25
2019-05-26T15:37:48.119Z,7.40
2019-05-26T15:40:14.934Z,4.15
2019-05-26T15:42:40.808Z,7.80
2019-05-26T15:45:06.782Z,4.00
2019-05-26T15:47:32.282Z,4.78
2019-05-26T15:49:57.841Z,5.55
2019-05-26T15:52:23.653Z,6.90
2019-05-26T15:54:49.168Z,4.70
2019-05-26T15:57:14.718Z,4.60
2019-05-26T15:59:40.289Z,5.87
2019-05-26T16:02:06.309Z,5.78
2019-05-26T16:04:34.242Z,4.47
2019-05-26T16:07:06.883Z,5.62
2019-05-26T16:09:32.422Z,5.03
2019-05-26T16:11:58.004Z,6.35
2019-05-26T16:14:25.508Z,6.67
2019-05-26T16:16:51.576Z,6.45
2019-05-26T16:19:23.703Z,8.58
2019-05-26T16:21:49.547Z,6.55
2019-05-26T16:24:16.618Z,5.70
2019-05-26T16:26:42.839Z,6.05
2019-05-26T16:29:15.173Z,5.70
2019-05-26T16:31:40.717Z,6.45
2019-05-26T16:34:15.697Z,4.72
2019-05-26T16:36:41.260Z,8.60
2019-05-26T16:39:08.752Z,6.33
2019-05-26T16:41:34.267Z,7.85
2019-05-26T16:44:00.459Z,5.28
2019-05-26T16:46:25.923Z,8.33
2019-05-26T16:48:54.565Z,7.20
2019-05-26T16:51:19.795Z,7.78
2019-05-26T16:53:46.021Z,5.30
2019-05-26T16:56:19.952Z,6.08
2019-05-26T16:58:51.413Z,8.63
2019-05-26T17:01:17.146Z,7.85
2019-05-26T17:03:42.789Z,6.37
2019-05-26T17:06:13.235Z,5.60
2019-05-26T17:08:39.414Z,5.87
2019-05-26T17:11:05.383Z,6.22
2019-05-26T17:13:32.946Z,5.67
2019-05-26T17:16:08.176Z,6.65
2019-05-26T17:18:33.596Z,5.40
2019-05-26T17:20:59.275Z,5.92
2019-05-26T17:23:25.217Z,8.90
2019-05-26T17:25:51.081Z,7.58
2019-05-26T17:28:22.720Z,7.05
2019-05-26T17:30:48.387Z,6.10
2019-05-26T17:33:14.166Z,6.08
2019-05-26T17:35:39.601Z,5.40
2019-05-26T17:38:05.599Z,4.87
2019-05-26T17:40:31.477Z,7.95
2019-05-26T17:42:57.097Z,5.60
2019-05-26T17:45:25.335Z,5.00
2019-05-26T17:47:51.233Z,7.03
2019-05-26T17:50:18.507Z,5.00
2019-05-26T17:52:44.741Z,7.03
2019-05-26T17:55:12.762Z,4.60
2019-05-26T17:57:38.560Z,4.85
2019-05-26T18:00:05.696Z,4.60
2019-05-26T18:02:31.348Z,4.90
2019-05-26T18:04:56.918Z,5.47
2019-05-26T18:07:22.680Z,6.85
2019-05-26T18:09:48.388Z,4.60
2019-05-26T18:12:14.099Z,6.95
2019-05-26T18:14:39.700Z,5.08
2019-05-26T18:17:05.211Z,5.53
2019-05-26T18:19:30.893Z,4.58
2019-05-26T18:21:56.501Z,5.53
2019-05-26T18:24:22.240Z,4.25
2019-05-26T18:26:47.722Z,6.15
2019-05-26T18:29:13.555Z,4.92
2019-05-26T18:31:39.077Z,7.00
2019-05-26T18:34:04.972Z,5.00
2019-05-26T18:36:30.629Z,4.45
2019-05-26T18:38:56.206Z,5.62
2019-05-26T18:41:22.495Z,4.28
2019-05-26T18:43:48.042Z,5.90
2019-05-26T18:46:13.623Z,3.47
2019-05-26T18:48:39.364Z,4.35
2019-05-26T18:51:04.760Z,4.72
2019-05-26T18:53:30.223Z,2.98
2019-05-26T18:55:55.684Z,3.08
2019-05-26T18:58:21.183Z,4.40
2019-05-26T19:00:46.711Z,5.10
2019-05-26T19:03:12.296Z,3.70
2019-05-26T19:05:38.604Z,3.02
2019-05-26T19:08:04.384Z,5.95
2019-05-26T19:10:33.166Z,4.92
2019-05-26T19:12:58.707Z,4.03
2019-05-26T19:15:24.330Z,3.42
2019-05-26T19:17:50.210Z,4.72
2019-05-26T19:20:17.312Z,4.83
2019-05-26T19:22:42.955Z,3.35
2019-05-26T19:25:15.519Z,4.50
2019-05-26T19:27:41.151Z,3.75
2019-05-26T19:30:07.927Z,4.30
2019-05-26T19:32:33.910Z,6.37
2019-05-26T19:34:59.807Z,4.33
2019-05-26T19:37:25.980Z,3.50
2019-05-26T19:39:55.808Z,5.00
2019-05-26T19:42:21.285Z,5.25
2019-05-26T19:44:47.031Z,4.33
2019-05-26T19:47:12.475Z,4.08
2019-05-26T19:49:38.044Z,4.80
2019-05-26T19:52:03.493Z,5.37
2019-05-26T19:54:28.960Z,3.62
2019-05-26T19:56:54.935Z,8.15
2019-05-26T19:59:24.839Z,3.87
2019-05-26T20:01:50.381Z,4.62
2019-05-26T20:04:16.274Z,5.65
2019-05-26T20:06:44.006Z,5.45
2019-05-26T20:09:10.691Z,6.45
2019-05-26T20:11:36.506Z,5.78
2019-05-26T20:14:01.882Z,5.70
2019-05-26T20:16:30.548Z,6.85
2019-05-26T20:18:54.680Z,7.33
2019-05-26T20:21:20.184Z,7.25
2019-05-26T20:23:45.633Z,6.80
2019-05-26T20:26:11.319Z,8.23
2019-05-26T20:28:37.881Z,6.45
2019-05-26T20:31:03.426Z,7.55
2019-05-26T20:33:29.158Z,7.45
2019-05-26T20:35:55.030Z,8.83
2019-05-26T20:38:20.856Z,9.68
2019-05-26T20:40:46.808Z,7.20
2019-05-26T20:43:12.384Z,8.90
2019-05-26T20:45:37.899Z,7.58
2019-05-26T20:48:03.483Z,7.00
2019-05-26T20:50:29.909Z,6.55
2019-05-26T20:52:55.788Z,6.12
2019-05-26T20:55:21.316Z,7.50
2019-05-26T20:57:47.146Z,5.53
2019-05-26T21:00:14.621Z,6.08
2019-05-26T21:02:43.311Z,5.62
2019-05-26T21:05:09.943Z,7.83
2019-05-26T21:07:35.491Z,6.17
2019-05-26T21:10:00.999Z,7.20
2019-05-26T21:12:27.809Z,5.78
2019-05-26T21:14:53.275Z,9.18
2019-05-26T21:17:18.728Z,6.58
2019-05-26T21:19:44.141Z,4.92
2019-05-26T21:22:09.578Z,5.87
2019-05-26T21:24:35.057Z,8.55
2019-05-26T21:27:00.614Z,4.70
2019-05-26T21:29:26.059Z,4.70
2019-05-26T21:31:51.668Z,5.37
2019-05-26T21:34:17.229Z,7.05
2019-05-26T21:36:42.798Z,6.15
2019-05-26T21:39:09.582Z,3.98
2019-05-26T21:41:35.234Z,4.25
2019-05-26T21:44:03.822Z,5.83
2019-05-26T21:46:29.393Z,7.42
2019-05-26T21:48:57.779Z,5.42
2019-05-26T21:51:23.331Z,4.22
2019-05-26T21:53:48.900Z,5.10
2019-05-26T21:56:14.759Z,3.50
2019-05-26T21:58:40.444Z,5.83
2019-05-26T22:01:08.514Z,3.35
2019-05-26T22:03:33.966Z,5.85
2019-05-26T22:05:59.872Z,6.72
2019-05-26T22:08:25.709Z,4.22
2019-05-26T22:10:51.323Z,3.75
2019-05-26T22:13:16.929Z,5.15
2019-05-26T22:15:42.792Z,4.42
2019-05-26T22:18:08.485Z,4.70
2019-05-26T22:20:33.967Z,3.90
2019-05-26T22:22:59.652Z,6.92
2019-05-26T22:25:25.125Z,5.58
2019-05-26T22:27:50.881Z,5.37
2019-05-26T22:30:17.011Z,6.75
2019-05-26T22:32:42.489Z,5.60
2019-05-26T22:35:10.103Z,4.62
2019-05-26T22:37:35.700Z,6.97
2019-05-26T22:40:01.337Z,5.95
2019-05-26T22:42:26.825Z,4.92
2019-05-26T22:44:52.315Z,5.75
2019-05-26T22:47:17.762Z,5.85
2019-05-26T22:49:43.201Z,4.70
2019-05-26T22:52:08.660Z,5.62
2019-05-26T22:54:34.177Z,4.42
2019-05-26T22:56:59.625Z,6.30
2019-05-26T22:59:27.556Z,4.50
2019-05-26T23:01:53.040Z,6.00
2019-05-26T23:04:18.502Z,6.45
2019-05-26T23:06:43.955Z,5.97
2019-05-26T23:09:09.822Z,5.85
2019-05-26T23:11:35.541Z,5.40
2019-05-26T23:14:01.360Z,5.80
2019-05-26T23:16:27.295Z,5.10
2019-05-26T23:18:52.782Z,4.55
2019-05-26T23:21:18.241Z,5.50
2019-05-26T23:23:43.684Z,5.12
2019-05-26T23:26:09.153Z,10.25
2019-05-26T23:28:34.897Z,4.92
2019-05-26T23:31:00.268Z,5.30
2019-05-26T23:33:25.721Z,6.17
2019-05-26T23:35:51.437Z,7.42
2019-05-26T23:38:16.907Z,8.55
2019-05-26T23:40:42.361Z,7.87
2019-05-26T23:43:07.732Z,6.75
2019-05-26T23:45:33.198Z,6.65
2019-05-26T23:47:59.070Z,6.62
2019-05-26T23:50:24.543Z,7.37
2019-05-26T23:52:50.016Z,6.60
2019-05-26T23:55:15.587Z,6.35
2019-05-26T23:57:40.930Z,9.65
